Huvudsida
METAR-TAF:

METAR-TAF

Flygplatser :

Annecy, Frankrike

latitud: 45-55-45N, longitud: 006-05-56E, höjd: 463 m

Aktuellt väderrapport

Denna rapport gjordes för 37 minuter sedan, klockan 13:30 UTC
Vind 6 kt från sydväst, varierande mellan syd och väst
Temperatur 14°C
Fuktighet 51%
Tryck 1030 hPa
Sikt 10 km eller mer
Inga moln under 1 500 m eller inga cumulonimbus

METAR: LFLP 221330Z AUTO 22006KT 180V260 CAVOK 14/04 Q1030 NOSIG

Tid: 15:07 (14:07 UTC)

Väderprognos

Denna rapport gjordes för 6 timmar och 7 minuter sedan, klockan 08:00 UTC
Prognos gäller från 22 kl. 09 UTC till 23 kl. 09 UTC
Vind 3 kt varierande vindriktning
Sikt 10 km eller mer
Inga moln under 1 500 m eller inga cumulonimbus
Temporärt
från 22 kl. 13 UTC till 22 kl. 17 UTC
Vind 5 kt från syd/sydväst

TAF: LFLP 220800Z 2209/2309 VRB03KT CAVOK TEMPO 2213/2217 21005KT

Aktuella väderrapporter och prognoser från 4000 flygplatser (METAR- och TAF-rapporter).

De tillgängliga stationerna syns som gula och röda prickar på kartan.

För musen över prickarna för att se namnen på stationerna.

Klicka sedan för att få väderrapporter och prognoser.

För att ändra kartan: Klicka på de gröna knapparna med ett svart kors på för att zooma in; den gröna knappen med ett streck på för att zooma ut; eller på de gröna pilarna för angränsande kartor.


METAR-TAF: